sensor_id;sensor_type;location;lat;lon;timestamp;P1;durP1;ratioP1;P2;durP2;ratioP2
38865;SDS011;62686;48.984;8.394;2023-08-20T00:31:46;12.43;;;10.73;;
38865;SDS011;62686;48.984;8.394;2023-08-20T01:05:15;15.10;;;11.90;;
38865;SDS011;62686;48.984;8.394;2023-08-20T01:07:53;11.98;;;10.85;;
38865;SDS011;62686;48.984;8.394;2023-08-20T01:10:34;11.77;;;10.57;;
38865;SDS011;62686;48.984;8.394;2023-08-20T01:13:07;12.75;;;11.55;;
38865;SDS011;62686;48.984;8.394;2023-08-20T01:15:36;13.43;;;11.70;;
38865;SDS011;62686;48.984;8.394;2023-08-20T01:18:04;14.85;;;12.25;;
38865;SDS011;62686;48.984;8.394;2023-08-20T01:20:35;12.85;;;11.45;;
38865;SDS011;62686;48.984;8.394;2023-08-20T01:23:13;13.13;;;11.75;;
38865;SDS011;62686;48.984;8.394;2023-08-20T01:26:07;13.30;;;11.90;;
38865;SDS011;62686;48.984;8.394;2023-08-20T01:28:47;13.52;;;12.13;;
38865;SDS011;62686;48.984;8.394;2023-08-20T01:31:16;13.63;;;12.23;;
38865;SDS011;62686;48.984;8.394;2023-08-20T01:33:45;15.65;;;11.65;;
38865;SDS011;62686;48.984;8.394;2023-08-20T01:36:14;13.15;;;11.85;;
38865;SDS011;62686;48.984;8.394;2023-08-20T01:38:44;15.85;;;12.45;;
38865;SDS011;62686;48.984;8.394;2023-08-20T01:41:12;13.20;;;11.23;;
38865;SDS011;62686;48.984;8.394;2023-08-20T01:43:40;13.63;;;11.98;;
38865;SDS011;62686;48.984;8.394;2023-08-20T01:46:10;12.85;;;11.45;;
38865;SDS011;62686;48.984;8.394;2023-08-20T01:48:39;15.93;;;11.73;;
38865;SDS011;62686;48.984;8.394;2023-08-20T01:51:07;14.65;;;11.63;;
38865;SDS011;62686;48.984;8.394;2023-08-20T01:53:35;12.65;;;11.35;;
38865;SDS011;62686;48.984;8.394;2023-08-20T01:56:04;14.30;;;12.45;;
38865;SDS011;62686;48.984;8.394;2023-08-20T01:58:37;13.27;;;11.45;;
38865;SDS011;62686;48.984;8.394;2023-08-20T02:01:05;13.05;;;11.73;;
38865;SDS011;62686;48.984;8.394;2023-08-20T02:03:36;15.02;;;11.35;;
38865;SDS011;62686;48.984;8.394;2023-08-20T02:06:04;13.85;;;11.38;;
38865;SDS011;62686;48.984;8.394;2023-08-20T02:08:33;17.08;;;12.00;;
38865;SDS011;62686;48.984;8.394;2023-08-20T02:11:01;12.68;;;11.38;;
38865;SDS011;62686;48.984;8.394;2023-08-20T02:13:30;13.10;;;11.73;;
38865;SDS011;62686;48.984;8.394;2023-08-20T02:15:59;14.77;;;11.85;;
38865;SDS011;62686;48.984;8.394;2023-08-20T02:18:28;13.57;;;12.18;;
38865;SDS011;62686;48.984;8.394;2023-08-20T02:20:58;15.85;;;13.52;;
38865;SDS011;62686;48.984;8.394;2023-08-20T02:23:26;16.30;;;12.23;;
38865;SDS011;62686;48.984;8.394;2023-08-20T02:25:55;14.45;;;12.30;;
38865;SDS011;62686;48.984;8.394;2023-08-20T02:28:24;16.38;;;12.55;;
38865;SDS011;62686;48.984;8.394;2023-08-20T02:30:53;16.65;;;12.57;;
38865;SDS011;62686;48.984;8.394;2023-08-20T02:33:21;14.52;;;11.65;;
38865;SDS011;62686;48.984;8.394;2023-08-20T02:35:49;14.75;;;11.68;;
38865;SDS011;62686;48.984;8.394;2023-08-20T02:38:19;12.13;;;10.82;;
38865;SDS011;62686;48.984;8.394;2023-08-20T02:40:47;13.20;;;11.85;;
38865;SDS011;62686;48.984;8.394;2023-08-20T02:43:15;15.48;;;11.68;;
38865;SDS011;62686;48.984;8.394;2023-08-20T02:45:43;15.10;;;11.70;;
38865;SDS011;62686;48.984;8.394;2023-08-20T02:48:11;13.57;;;12.27;;
38865;SDS011;62686;48.984;8.394;2023-08-20T02:50:40;13.77;;;12.38;;
38865;SDS011;62686;48.984;8.394;2023-08-20T03:01:19;14.95;;;12.73;;
38865;SDS011;62686;48.984;8.394;2023-08-20T03:03:48;13.82;;;12.40;;
38865;SDS011;62686;48.984;8.394;2023-08-20T03:08:58;14.43;;;12.80;;
38865;SDS011;62686;48.984;8.394;2023-08-20T03:11:26;14.90;;;13.07;;
38865;SDS011;62686;48.984;8.394;2023-08-20T03:22:09;16.08;;;13.05;;
38865;SDS011;62686;48.984;8.394;2023-08-20T03:24:38;14.30;;;12.80;;
38865;SDS011;62686;48.984;8.394;2023-08-20T03:27:06;16.45;;;13.88;;
38865;SDS011;62686;48.984;8.394;2023-08-20T03:29:34;18.13;;;13.73;;
38865;SDS011;62686;48.984;8.394;2023-08-20T03:32:03;15.98;;;13.15;;
38865;SDS011;62686;48.984;8.394;2023-08-20T03:34:31;16.83;;;13.40;;
38865;SDS011;62686;48.984;8.394;2023-08-20T03:37:00;21.45;;;14.57;;
38865;SDS011;62686;48.984;8.394;2023-08-20T03:39:30;17.10;;;14.23;;
38865;SDS011;62686;48.984;8.394;2023-08-20T03:47:29;16.77;;;14.15;;
38865;SDS011;62686;48.984;8.394;2023-08-20T03:49:57;15.98;;;14.30;;
38865;SDS011;62686;48.984;8.394;2023-08-20T03:52:25;18.95;;;14.35;;
38865;SDS011;62686;48.984;8.394;2023-08-20T03:54:55;15.95;;;13.88;;
38865;SDS011;62686;48.984;8.394;2023-08-20T03:57:23;16.27;;;14.38;;
38865;SDS011;62686;48.984;8.394;2023-08-20T03:59:52;16.70;;;13.65;;
38865;SDS011;62686;48.984;8.394;2023-08-20T04:02:20;16.60;;;13.80;;
38865;SDS011;62686;48.984;8.394;2023-08-20T04:04:48;15.35;;;13.30;;
38865;SDS011;62686;48.984;8.394;2023-08-20T04:07:17;15.45;;;13.85;;
38865;SDS011;62686;48.984;8.394;2023-08-20T04:09:45;15.60;;;13.05;;
38865;SDS011;62686;48.984;8.394;2023-08-20T04:12:15;17.02;;;13.93;;
38865;SDS011;62686;48.984;8.394;2023-08-20T04:14:43;15.13;;;13.52;;
38865;SDS011;62686;48.984;8.394;2023-08-20T04:17:11;16.40;;;12.88;;
38865;SDS011;62686;48.984;8.394;2023-08-20T04:19:39;19.27;;;14.20;;
38865;SDS011;62686;48.984;8.394;2023-08-20T04:22:07;17.50;;;14.70;;
38865;SDS011;62686;48.984;8.394;2023-08-20T04:24:35;16.25;;;14.23;;
38865;SDS011;62686;48.984;8.394;2023-08-20T04:27:04;16.20;;;12.75;;
38865;SDS011;62686;48.984;8.394;2023-08-20T04:29:33;17.25;;;13.60;;
38865;SDS011;62686;48.984;8.394;2023-08-20T04:32:01;15.18;;;13.57;;
38865;SDS011;62686;48.984;8.394;2023-08-20T04:34:30;16.65;;;13.85;;
38865;SDS011;62686;48.984;8.394;2023-08-20T04:36:58;15.60;;;13.95;;
38865;SDS011;62686;48.984;8.394;2023-08-20T04:39:26;16.02;;;13.95;;
38865;SDS011;62686;48.984;8.394;2023-08-20T04:41:54;17.52;;;15.45;;
38865;SDS011;62686;48.984;8.394;2023-08-20T04:44:23;18.00;;;13.70;;
38865;SDS011;62686;48.984;8.394;2023-08-20T04:46:53;18.30;;;14.45;;
38865;SDS011;62686;48.984;8.394;2023-08-20T04:49:21;16.30;;;13.45;;
38865;SDS011;62686;48.984;8.394;2023-08-20T04:51:52;14.60;;;12.93;;
38865;SDS011;62686;48.984;8.394;2023-08-20T04:54:20;14.73;;;13.00;;
38865;SDS011;62686;48.984;8.394;2023-08-20T04:56:48;15.13;;;13.30;;
38865;SDS011;62686;48.984;8.394;2023-08-20T04:59:16;16.58;;;13.98;;
38865;SDS011;62686;48.984;8.394;2023-08-20T05:01:44;14.77;;;13.18;;
38865;SDS011;62686;48.984;8.394;2023-08-20T05:04:14;16.98;;;12.43;;
38865;SDS011;62686;48.984;8.394;2023-08-20T05:06:42;15.13;;;13.55;;
38865;SDS011;62686;48.984;8.394;2023-08-20T05:09:10;14.00;;;12.52;;
38865;SDS011;62686;48.984;8.394;2023-08-20T05:11:38;16.10;;;12.80;;
38865;SDS011;62686;48.984;8.394;2023-08-20T05:14:06;14.13;;;12.77;;
38865;SDS011;62686;48.984;8.394;2023-08-20T05:16:34;13.68;;;12.27;;
38865;SDS011;62686;48.984;8.394;2023-08-20T05:19:03;14.80;;;11.52;;
38865;SDS011;62686;48.984;8.394;2023-08-20T05:21:32;13.88;;;12.50;;
38865;SDS011;62686;48.984;8.394;2023-08-20T05:24:01;13.23;;;11.93;;
38865;SDS011;62686;48.984;8.394;2023-08-20T05:26:29;16.77;;;13.73;;
38865;SDS011;62686;48.984;8.394;2023-08-20T05:28:57;15.80;;;13.73;;
38865;SDS011;62686;48.984;8.394;2023-08-20T05:31:26;16.90;;;13.80;;
38865;SDS011;62686;48.984;8.394;2023-08-20T05:33:54;16.67;;;11.93;;
38865;SDS011;62686;48.984;8.394;2023-08-20T05:36:22;13.77;;;11.15;;
38865;SDS011;62686;48.984;8.394;2023-08-20T05:38:52;9.68;;;8.75;;
38865;SDS011;62686;48.984;8.394;2023-08-20T05:41:20;8.02;;;7.20;;
38865;SDS011;62686;48.984;8.394;2023-08-20T05:43:49;7.80;;;7.00;;
38865;SDS011;62686;48.984;8.394;2023-08-20T05:46:17;7.40;;;6.70;;
38865;SDS011;62686;48.984;8.394;2023-08-20T05:48:47;8.00;;;6.10;;
38865;SDS011;62686;48.984;8.394;2023-08-20T05:51:15;6.22;;;5.40;;
38865;SDS011;62686;48.984;8.394;2023-08-20T05:53:43;5.93;;;5.28;;
38865;SDS011;62686;48.984;8.394;2023-08-20T05:56:13;5.93;;;5.32;;
38865;SDS011;62686;48.984;8.394;2023-08-20T05:58:41;5.70;;;5.18;;
38865;SDS011;62686;48.984;8.394;2023-08-20T06:01:09;5.97;;;5.07;;
38865;SDS011;62686;48.984;8.394;2023-08-20T06:03:38;7.03;;;5.18;;
38865;SDS011;62686;48.984;8.394;2023-08-20T06:06:07;6.20;;;5.47;;
38865;SDS011;62686;48.984;8.394;2023-08-20T06:08:35;8.43;;;5.38;;
38865;SDS011;62686;48.984;8.394;2023-08-20T06:11:03;5.85;;;5.25;;
38865;SDS011;62686;48.984;8.394;2023-08-20T06:13:33;7.47;;;5.72;;
38865;SDS011;62686;48.984;8.394;2023-08-20T06:16:01;5.63;;;5.10;;
38865;SDS011;62686;48.984;8.394;2023-08-20T06:18:29;6.20;;;5.60;;
38865;SDS011;62686;48.984;8.394;2023-08-20T06:20:57;10.95;;;5.07;;
38865;SDS011;62686;48.984;8.394;2023-08-20T06:23:25;6.75;;;5.22;;
38865;SDS011;62686;48.984;8.394;2023-08-20T06:26:02;6.40;;;4.72;;
38865;SDS011;62686;48.984;8.394;2023-08-20T06:28:30;9.25;;;4.88;;
38865;SDS011;62686;48.984;8.394;2023-08-20T06:30:59;10.13;;;5.35;;
38865;SDS011;62686;48.984;8.394;2023-08-20T06:33:27;5.93;;;5.32;;
38865;SDS011;62686;48.984;8.394;2023-08-20T06:35:56;5.38;;;4.88;;
38865;SDS011;62686;48.984;8.394;2023-08-20T06:38:25;8.50;;;4.95;;
38865;SDS011;62686;48.984;8.394;2023-08-20T06:40:53;5.20;;;4.70;;
38865;SDS011;62686;48.984;8.394;2023-08-20T06:43:21;6.20;;;5.07;;
38865;SDS011;62686;48.984;8.394;2023-08-20T06:45:49;4.85;;;4.22;;
38865;SDS011;62686;48.984;8.394;2023-08-20T06:48:20;4.10;;;3.50;;
38865;SDS011;62686;48.984;8.394;2023-08-20T06:50:51;4.97;;;3.55;;
38865;SDS011;62686;48.984;8.394;2023-08-20T06:53:19;4.00;;;3.60;;
38865;SDS011;62686;48.984;8.394;2023-08-20T06:55:47;5.13;;;3.70;;
38865;SDS011;62686;48.984;8.394;2023-08-20T06:58:15;6.25;;;3.53;;
38865;SDS011;62686;48.984;8.394;2023-08-20T07:00:44;4.40;;;3.45;;
38865;SDS011;62686;48.984;8.394;2023-08-20T07:03:12;5.22;;;3.38;;
38865;SDS011;62686;48.984;8.394;2023-08-20T07:05:41;4.45;;;3.70;;
38865;SDS011;62686;48.984;8.394;2023-08-20T07:08:10;5.20;;;3.58;;
38865;SDS011;62686;48.984;8.394;2023-08-20T07:10:38;4.47;;;3.10;;
38865;SDS011;62686;48.984;8.394;2023-08-20T07:13:06;4.78;;;3.40;;
38865;SDS011;62686;48.984;8.394;2023-08-20T07:15:34;5.53;;;3.53;;
38865;SDS011;62686;48.984;8.394;2023-08-20T07:18:02;4.03;;;3.63;;
38865;SDS011;62686;48.984;8.394;2023-08-20T07:20:31;4.22;;;3.65;;
38865;SDS011;62686;48.984;8.394;2023-08-20T07:23:00;4.07;;;3.60;;
38865;SDS011;62686;48.984;8.394;2023-08-20T07:25:30;5.97;;;3.83;;
38865;SDS011;62686;48.984;8.394;2023-08-20T07:27:58;10.23;;;4.00;;
38865;SDS011;62686;48.984;8.394;2023-08-20T07:30:26;5.60;;;3.90;;
38865;SDS011;62686;48.984;8.394;2023-08-20T07:32:54;4.10;;;3.70;;
38865;SDS011;62686;48.984;8.394;2023-08-20T07:35:23;4.22;;;3.60;;
38865;SDS011;62686;48.984;8.394;2023-08-20T07:37:51;5.22;;;3.88;;
38865;SDS011;62686;48.984;8.394;2023-08-20T07:40:21;6.60;;;3.85;;
38865;SDS011;62686;48.984;8.394;2023-08-20T07:42:49;4.10;;;3.70;;
38865;SDS011;62686;48.984;8.394;2023-08-20T07:45:17;4.63;;;3.83;;
38865;SDS011;62686;48.984;8.394;2023-08-20T07:47:46;4.15;;;3.35;;
38865;SDS011;62686;48.984;8.394;2023-08-20T07:50:14;6.13;;;3.72;;
38865;SDS011;62686;48.984;8.394;2023-08-20T07:52:43;5.90;;;3.42;;
38865;SDS011;62686;48.984;8.394;2023-08-20T07:55:11;4.38;;;3.33;;
38865;SDS011;62686;48.984;8.394;2023-08-20T07:57:40;5.18;;;3.50;;
38865;SDS011;62686;48.984;8.394;2023-08-20T08:00:09;5.35;;;3.45;;
38865;SDS011;62686;48.984;8.394;2023-08-20T08:02:38;3.80;;;3.40;;
38865;SDS011;62686;48.984;8.394;2023-08-20T08:05:07;5.55;;;3.30;;
38865;SDS011;62686;48.984;8.394;2023-08-20T08:07:35;3.80;;;3.00;;
38865;SDS011;62686;48.984;8.394;2023-08-20T08:10:04;4.50;;;3.40;;
38865;SDS011;62686;48.984;8.394;2023-08-20T08:12:33;3.85;;;3.47;;
38865;SDS011;62686;48.984;8.394;2023-08-20T08:15:02;4.22;;;3.25;;
38865;SDS011;62686;48.984;8.394;2023-08-20T08:17:31;4.93;;;3.80;;
38865;SDS011;62686;48.984;8.394;2023-08-20T08:19:59;5.00;;;3.60;;
38865;SDS011;62686;48.984;8.394;2023-08-20T08:22:27;5.38;;;3.28;;
38865;SDS011;62686;48.984;8.394;2023-08-20T08:24:56;4.55;;;3.35;;
38865;SDS011;62686;48.984;8.394;2023-08-20T08:27:24;4.53;;;3.22;;
38865;SDS011;62686;48.984;8.394;2023-08-20T08:29:52;7.95;;;3.20;;
38865;SDS011;62686;48.984;8.394;2023-08-20T08:32:21;4.95;;;3.10;;
38865;SDS011;62686;48.984;8.394;2023-08-20T08:34:50;6.70;;;3.33;;
38865;SDS011;62686;48.984;8.394;2023-08-20T08:37:18;5.15;;;3.30;;
38865;SDS011;62686;48.984;8.394;2023-08-20T08:39:47;5.13;;;3.47;;
38865;SDS011;62686;48.984;8.394;2023-08-20T08:42:15;6.53;;;3.25;;
38865;SDS011;62686;48.984;8.394;2023-08-20T08:44:47;5.05;;;3.47;;
38865;SDS011;62686;48.984;8.394;2023-08-20T08:47:17;6.15;;;3.20;;
38865;SDS011;62686;48.984;8.394;2023-08-20T08:49:48;4.25;;;3.65;;
38865;SDS011;62686;48.984;8.394;2023-08-20T08:52:18;4.15;;;3.10;;
38865;SDS011;62686;48.984;8.394;2023-08-20T08:54:46;6.82;;;3.50;;
38865;SDS011;62686;48.984;8.394;2023-08-20T08:57:15;5.35;;;3.17;;
38865;SDS011;62686;48.984;8.394;2023-08-20T08:59:45;4.07;;;3.00;;
38865;SDS011;62686;48.984;8.394;2023-08-20T09:02:13;6.65;;;3.40;;
38865;SDS011;62686;48.984;8.394;2023-08-20T09:04:44;4.35;;;3.47;;
38865;SDS011;62686;48.984;8.394;2023-08-20T09:07:14;7.72;;;3.60;;
38865;SDS011;62686;48.984;8.394;2023-08-20T09:09:43;4.22;;;3.20;;
38865;SDS011;62686;48.984;8.394;2023-08-20T09:12:15;8.32;;;3.28;;
38865;SDS011;62686;48.984;8.394;2023-08-20T09:14:45;7.65;;;3.10;;
38865;SDS011;62686;48.984;8.394;2023-08-20T09:17:15;4.43;;;3.17;;
38865;SDS011;62686;48.984;8.394;2023-08-20T09:19:44;4.95;;;3.20;;
38865;SDS011;62686;48.984;8.394;2023-08-20T09:22:14;3.33;;;3.03;;
38865;SDS011;62686;48.984;8.394;2023-08-20T09:24:44;3.67;;;2.60;;
38865;SDS011;62686;48.984;8.394;2023-08-20T09:27:13;7.40;;;3.28;;
38865;SDS011;62686;48.984;8.394;2023-08-20T09:29:46;4.45;;;3.20;;
38865;SDS011;62686;48.984;8.394;2023-08-20T09:32:15;4.25;;;3.13;;
38865;SDS011;62686;48.984;8.394;2023-08-20T09:34:44;3.92;;;3.60;;
38865;SDS011;62686;48.984;8.394;2023-08-20T09:37:15;7.57;;;3.55;;
38865;SDS011;62686;48.984;8.394;2023-08-20T09:39:45;3.92;;;3.05;;
38865;SDS011;62686;48.984;8.394;2023-08-20T09:42:13;5.50;;;3.22;;
38865;SDS011;62686;48.984;8.394;2023-08-20T09:44:42;8.80;;;3.08;;
38865;SDS011;62686;48.984;8.394;2023-08-20T09:47:13;6.07;;;3.92;;
38865;SDS011;62686;48.984;8.394;2023-08-20T09:49:42;5.57;;;3.40;;
38865;SDS011;62686;48.984;8.394;2023-08-20T09:52:12;6.53;;;3.45;;
38865;SDS011;62686;48.984;8.394;2023-08-20T09:54:57;5.10;;;3.40;;
38865;SDS011;62686;48.984;8.394;2023-08-20T09:57:31;7.15;;;3.92;;
38865;SDS011;62686;48.984;8.394;2023-08-20T10:00:02;4.70;;;3.75;;
38865;SDS011;62686;48.984;8.394;2023-08-20T10:02:31;4.05;;;3.55;;
38865;SDS011;62686;48.984;8.394;2023-08-20T10:05:01;5.32;;;3.65;;
38865;SDS011;62686;48.984;8.394;2023-08-20T10:07:30;4.72;;;3.75;;
38865;SDS011;62686;48.984;8.394;2023-08-20T10:10:01;6.38;;;3.72;;
38865;SDS011;62686;48.984;8.394;2023-08-20T10:12:31;12.45;;;4.35;;
38865;SDS011;62686;48.984;8.394;2023-08-20T10:15:00;5.63;;;4.07;;
38865;SDS011;62686;48.984;8.394;2023-08-20T10:17:29;6.63;;;4.10;;
38865;SDS011;62686;48.984;8.394;2023-08-20T10:19:58;10.23;;;4.30;;
38865;SDS011;62686;48.984;8.394;2023-08-20T10:22:32;5.03;;;3.65;;
38865;SDS011;62686;48.984;8.394;2023-08-20T10:25:03;4.93;;;3.90;;
38865;SDS011;62686;48.984;8.394;2023-08-20T10:27:34;4.90;;;3.95;;
38865;SDS011;62686;48.984;8.394;2023-08-20T10:30:07;4.65;;;3.60;;
38865;SDS011;62686;48.984;8.394;2023-08-20T10:32:46;5.50;;;3.60;;
38865;SDS011;62686;48.984;8.394;2023-08-20T10:35:16;7.80;;;3.80;;
38865;SDS011;62686;48.984;8.394;2023-08-20T10:38:01;3.55;;;3.25;;
38865;SDS011;62686;48.984;8.394;2023-08-20T10:40:47;6.75;;;3.90;;
38865;SDS011;62686;48.984;8.394;2023-08-20T10:43:27;5.18;;;3.38;;
38865;SDS011;62686;48.984;8.394;2023-08-20T10:46:06;5.50;;;3.67;;
38865;SDS011;62686;48.984;8.394;2023-08-20T10:48:46;3.90;;;3.50;;
38865;SDS011;62686;48.984;8.394;2023-08-20T10:51:16;7.07;;;3.45;;
38865;SDS011;62686;48.984;8.394;2023-08-20T10:53:49;7.05;;;3.80;;
38865;SDS011;62686;48.984;8.394;2023-08-20T10:56:45;6.18;;;3.88;;
38865;SDS011;62686;48.984;8.394;2023-08-20T10:59:15;4.47;;;3.58;;
38865;SDS011;62686;48.984;8.394;2023-08-20T11:01:45;7.70;;;3.70;;
38865;SDS011;62686;48.984;8.394;2023-08-20T11:04:15;7.57;;;3.75;;
38865;SDS011;62686;48.984;8.394;2023-08-20T11:06:49;7.25;;;3.70;;
38865;SDS011;62686;48.984;8.394;2023-08-20T11:09:36;5.22;;;3.97;;
38865;SDS011;62686;48.984;8.394;2023-08-20T11:12:08;5.55;;;3.70;;
38865;SDS011;62686;48.984;8.394;2023-08-20T11:14:38;5.25;;;3.40;;
38865;SDS011;62686;48.984;8.394;2023-08-20T11:17:10;5.07;;;3.70;;
38865;SDS011;62686;48.984;8.394;2023-08-20T11:19:39;6.60;;;3.20;;
38865;SDS011;62686;48.984;8.394;2023-08-20T11:22:09;6.28;;;3.30;;
38865;SDS011;62686;48.984;8.394;2023-08-20T11:24:42;7.30;;;3.47;;
38865;SDS011;62686;48.984;8.394;2023-08-20T11:27:11;5.13;;;3.20;;
38865;SDS011;62686;48.984;8.394;2023-08-20T11:29:41;5.32;;;3.20;;
38865;SDS011;62686;48.984;8.394;2023-08-20T11:32:09;4.47;;;3.17;;
38865;SDS011;62686;48.984;8.394;2023-08-20T11:34:38;4.70;;;3.47;;
38865;SDS011;62686;48.984;8.394;2023-08-20T11:37:06;5.30;;;3.38;;
38865;SDS011;62686;48.984;8.394;2023-08-20T11:39:36;6.22;;;3.10;;
38865;SDS011;62686;48.984;8.394;2023-08-20T11:42:04;5.40;;;3.20;;
38865;SDS011;62686;48.984;8.394;2023-08-20T11:44:43;5.05;;;3.15;;
38865;SDS011;62686;48.984;8.394;2023-08-20T11:47:13;4.63;;;3.35;;
38865;SDS011;62686;48.984;8.394;2023-08-20T11:49:42;3.78;;;3.35;;
38865;SDS011;62686;48.984;8.394;2023-08-20T11:55:14;4.80;;;2.88;;
38865;SDS011;62686;48.984;8.394;2023-08-20T11:57:49;4.95;;;3.20;;
38865;SDS011;62686;48.984;8.394;2023-08-20T12:00:27;5.13;;;3.00;;
38865;SDS011;62686;48.984;8.394;2023-08-20T12:02:56;3.33;;;2.72;;
38865;SDS011;62686;48.984;8.394;2023-08-20T12:05:28;4.55;;;2.60;;
38865;SDS011;62686;48.984;8.394;2023-08-20T12:07:57;7.53;;;2.92;;
38865;SDS011;62686;48.984;8.394;2023-08-20T12:10:27;4.32;;;2.55;;
38865;SDS011;62686;48.984;8.394;2023-08-20T12:12:57;3.00;;;2.30;;
38865;SDS011;62686;48.984;8.394;2023-08-20T12:15:27;4.97;;;2.60;;
38865;SDS011;62686;48.984;8.394;2023-08-20T12:17:59;5.03;;;2.95;;
38865;SDS011;62686;48.984;8.394;2023-08-20T12:20:31;3.03;;;2.70;;
38865;SDS011;62686;48.984;8.394;2023-08-20T12:23:03;5.25;;;2.70;;
38865;SDS011;62686;48.984;8.394;2023-08-20T12:25:40;6.93;;;2.60;;
38865;SDS011;62686;48.984;8.394;2023-08-20T12:28:09;5.95;;;2.50;;
38865;SDS011;62686;48.984;8.394;2023-08-20T12:30:38;3.38;;;2.38;;
38865;SDS011;62686;48.984;8.394;2023-08-20T12:33:07;2.95;;;2.13;;
38865;SDS011;62686;48.984;8.394;2023-08-20T12:35:35;4.72;;;2.88;;
38865;SDS011;62686;48.984;8.394;2023-08-20T12:38:04;4.10;;;2.50;;
38865;SDS011;62686;48.984;8.394;2023-08-20T12:40:34;5.68;;;2.75;;
38865;SDS011;62686;48.984;8.394;2023-08-20T12:43:02;7.82;;;2.47;;
38865;SDS011;62686;48.984;8.394;2023-08-20T12:45:30;3.70;;;2.50;;
38865;SDS011;62686;48.984;8.394;2023-08-20T12:48:00;3.17;;;2.65;;
38865;SDS011;62686;48.984;8.394;2023-08-20T12:50:31;6.13;;;2.67;;
38865;SDS011;62686;48.984;8.394;2023-08-20T12:52:59;4.07;;;2.70;;
38865;SDS011;62686;48.984;8.394;2023-08-20T12:55:27;5.35;;;2.50;;
38865;SDS011;62686;48.984;8.394;2023-08-20T12:57:57;3.83;;;2.50;;
38865;SDS011;62686;48.984;8.394;2023-08-20T13:00:26;3.78;;;2.65;;
38865;SDS011;62686;48.984;8.394;2023-08-20T13:02:55;4.05;;;2.63;;
38865;SDS011;62686;48.984;8.394;2023-08-20T13:05:26;6.90;;;2.80;;
38865;SDS011;62686;48.984;8.394;2023-08-20T13:07:55;4.22;;;2.90;;
38865;SDS011;62686;48.984;8.394;2023-08-20T13:10:24;4.20;;;2.45;;
38865;SDS011;62686;48.984;8.394;2023-08-20T13:12:54;4.93;;;2.72;;
38865;SDS011;62686;48.984;8.394;2023-08-20T13:15:27;6.32;;;2.60;;
38865;SDS011;62686;48.984;8.394;2023-08-20T13:21:04;4.00;;;2.65;;
38865;SDS011;62686;48.984;8.394;2023-08-20T13:23:32;4.55;;;2.20;;
38865;SDS011;62686;48.984;8.394;2023-08-20T13:26:00;4.20;;;2.47;;
38865;SDS011;62686;48.984;8.394;2023-08-20T13:28:29;5.65;;;2.47;;
38865;SDS011;62686;48.984;8.394;2023-08-20T13:30:57;3.45;;;2.38;;
38865;SDS011;62686;48.984;8.394;2023-08-20T13:33:25;3.67;;;2.60;;
38865;SDS011;62686;48.984;8.394;2023-08-20T13:35:53;4.40;;;2.38;;
38865;SDS011;62686;48.984;8.394;2023-08-20T13:38:24;5.70;;;2.38;;
38865;SDS011;62686;48.984;8.394;2023-08-20T13:40:53;3.53;;;2.33;;
38865;SDS011;62686;48.984;8.394;2023-08-20T13:43:22;6.18;;;2.30;;
38865;SDS011;62686;48.984;8.394;2023-08-20T13:45:50;2.60;;;2.40;;
38865;SDS011;62686;48.984;8.394;2023-08-20T13:48:18;4.00;;;2.80;;
38865;SDS011;62686;48.984;8.394;2023-08-20T13:50:47;3.25;;;2.40;;
38865;SDS011;62686;48.984;8.394;2023-08-20T13:53:15;3.80;;;2.72;;
38865;SDS011;62686;48.984;8.394;2023-08-20T13:55:45;8.18;;;2.50;;
38865;SDS011;62686;48.984;8.394;2023-08-20T15:48:53;3.55;;;2.60;;
38865;SDS011;62686;48.984;8.394;2023-08-20T15:51:38;4.53;;;2.95;;
38865;SDS011;62686;48.984;8.394;2023-08-20T15:54:06;4.30;;;2.90;;
38865;SDS011;62686;48.984;8.394;2023-08-20T15:56:36;3.40;;;2.80;;
38865;SDS011;62686;48.984;8.394;2023-08-20T15:59:06;4.82;;;3.10;;
38865;SDS011;62686;48.984;8.394;2023-08-20T16:01:38;5.28;;;3.03;;
38865;SDS011;62686;48.984;8.394;2023-08-20T16:04:09;4.68;;;2.90;;
38865;SDS011;62686;48.984;8.394;2023-08-20T16:06:37;4.63;;;2.85;;
38865;SDS011;62686;48.984;8.394;2023-08-20T16:09:06;6.20;;;3.00;;
38865;SDS011;62686;48.984;8.394;2023-08-20T16:11:39;4.78;;;2.80;;
38865;SDS011;62686;48.984;8.394;2023-08-20T16:14:09;4.50;;;2.80;;
38865;SDS011;62686;48.984;8.394;2023-08-20T16:16:52;11.75;;;7.75;;
38865;SDS011;62686;48.984;8.394;2023-08-20T16:22:29;4.25;;;2.75;;
38865;SDS011;62686;48.984;8.394;2023-08-20T16:24:58;4.28;;;3.08;;
38865;SDS011;62686;48.984;8.394;2023-08-20T16:27:26;5.47;;;3.03;;
38865;SDS011;62686;48.984;8.394;2023-08-20T16:29:55;3.88;;;2.58;;
38865;SDS011;62686;48.984;8.394;2023-08-20T16:32:24;16.25;;;12.07;;
38865;SDS011;62686;48.984;8.394;2023-08-20T16:34:52;3.83;;;3.22;;
38865;SDS011;62686;48.984;8.394;2023-08-20T16:37:20;5.15;;;2.83;;
38865;SDS011;62686;48.984;8.394;2023-08-20T16:39:50;4.50;;;2.63;;
38865;SDS011;62686;48.984;8.394;2023-08-20T16:42:19;4.88;;;3.10;;
38865;SDS011;62686;48.984;8.394;2023-08-20T16:44:47;5.50;;;3.15;;
38865;SDS011;62686;48.984;8.394;2023-08-20T16:47:16;5.18;;;2.70;;
38865;SDS011;62686;48.984;8.394;2023-08-20T16:49:47;5.82;;;3.10;;
38865;SDS011;62686;48.984;8.394;2023-08-20T16:52:16;4.97;;;2.95;;
38865;SDS011;62686;48.984;8.394;2023-08-20T16:54:45;4.88;;;3.30;;
38865;SDS011;62686;48.984;8.394;2023-08-20T17:02:48;3.35;;;2.72;;
38865;SDS011;62686;48.984;8.394;2023-08-20T17:05:17;3.33;;;2.90;;
38865;SDS011;62686;48.984;8.394;2023-08-20T17:07:46;5.65;;;3.08;;
38865;SDS011;62686;48.984;8.394;2023-08-20T17:10:14;5.55;;;3.20;;
38865;SDS011;62686;48.984;8.394;2023-08-20T17:12:43;3.78;;;2.80;;
38865;SDS011;62686;48.984;8.394;2023-08-20T17:15:12;6.13;;;2.97;;
38865;SDS011;62686;48.984;8.394;2023-08-20T17:17:41;4.78;;;2.97;;
38865;SDS011;62686;48.984;8.394;2023-08-20T17:20:11;3.55;;;2.90;;
38865;SDS011;62686;48.984;8.394;2023-08-20T17:22:40;6.05;;;3.33;;
38865;SDS011;62686;48.984;8.394;2023-08-20T17:25:08;4.70;;;3.00;;
38865;SDS011;62686;48.984;8.394;2023-08-20T17:27:37;7.88;;;3.20;;
38865;SDS011;62686;48.984;8.394;2023-08-20T17:30:06;4.03;;;2.90;;
38865;SDS011;62686;48.984;8.394;2023-08-20T17:32:37;3.40;;;3.03;;
38865;SDS011;62686;48.984;8.394;2023-08-20T17:35:06;4.32;;;2.70;;
38865;SDS011;62686;48.984;8.394;2023-08-20T17:37:38;4.80;;;3.20;;
38865;SDS011;62686;48.984;8.394;2023-08-20T17:40:08;6.28;;;3.22;;
38865;SDS011;62686;48.984;8.394;2023-08-20T17:42:37;5.63;;;3.22;;
38865;SDS011;62686;48.984;8.394;2023-08-20T17:45:05;3.70;;;2.90;;
38865;SDS011;62686;48.984;8.394;2023-08-20T17:47:35;6.47;;;3.20;;
38865;SDS011;62686;48.984;8.394;2023-08-20T17:50:04;5.18;;;3.00;;
38865;SDS011;62686;48.984;8.394;2023-08-20T17:52:37;3.65;;;3.03;;
38865;SDS011;62686;48.984;8.394;2023-08-20T17:55:06;5.35;;;3.28;;
38865;SDS011;62686;48.984;8.394;2023-08-20T17:57:35;5.22;;;3.08;;
38865;SDS011;62686;48.984;8.394;2023-08-20T18:00:04;5.47;;;3.40;;
38865;SDS011;62686;48.984;8.394;2023-08-20T18:02:36;4.10;;;2.92;;
38865;SDS011;62686;48.984;8.394;2023-08-20T18:05:29;3.25;;;2.92;;
38865;SDS011;62686;48.984;8.394;2023-08-20T18:20:39;5.65;;;3.90;;
38865;SDS011;62686;48.984;8.394;2023-08-20T18:23:10;7.22;;;3.53;;
38865;SDS011;62686;48.984;8.394;2023-08-20T18:34:15;3.55;;;2.72;;
38865;SDS011;62686;48.984;8.394;2023-08-20T18:37:07;5.25;;;2.72;;
38865;SDS011;62686;48.984;8.394;2023-08-20T18:39:35;3.58;;;3.10;;
38865;SDS011;62686;48.984;8.394;2023-08-20T18:42:04;3.20;;;2.90;;
38865;SDS011;62686;48.984;8.394;2023-08-20T18:44:33;3.97;;;3.13;;
38865;SDS011;62686;48.984;8.394;2023-08-20T18:47:02;5.00;;;2.80;;
38865;SDS011;62686;48.984;8.394;2023-08-20T18:49:30;6.38;;;2.75;;